createdAt,value
2018-10-06T00:00:24.846Z,73.70
2018-10-06T00:02:53.129Z,74.00
2018-10-06T00:05:21.518Z,73.80
2018-10-06T00:07:50.097Z,74.40
2018-10-06T00:10:18.522Z,73.20
2018-10-06T00:12:47.415Z,73.70
2018-10-06T00:15:15.652Z,73.50
2018-10-06T00:17:44.580Z,74.00
2018-10-06T00:20:13.054Z,74.50
2018-10-06T00:22:41.294Z,75.60
2018-10-06T00:25:09.813Z,76.10
2018-10-06T00:27:38.344Z,76.80
2018-10-06T00:30:06.815Z,76.00
2018-10-06T00:32:35.364Z,75.30
2018-10-06T00:35:03.849Z,74.70
2018-10-06T00:37:32.053Z,75.20
2018-10-06T00:40:00.881Z,75.70
2018-10-06T00:42:29.396Z,75.60
2018-10-06T00:44:58.237Z,75.80
2018-10-06T00:47:26.593Z,75.30
2018-10-06T00:49:54.763Z,76.10
2018-10-06T00:52:23.775Z,75.90
2018-10-06T00:54:52.038Z,76.40
2018-10-06T00:57:21.201Z,78.00
2018-10-06T00:59:49.580Z,78.50
2018-10-06T01:02:18.205Z,78.60
2018-10-06T01:04:47.140Z,78.30
2018-10-06T01:07:15.801Z,77.40
2018-10-06T01:09:44.079Z,78.00
2018-10-06T01:12:15.140Z,77.50
2018-10-06T01:14:43.440Z,75.90
2018-10-06T01:17:11.915Z,76.30
2018-10-06T01:19:41.077Z,76.60
2018-10-06T01:22:09.457Z,77.50
2018-10-06T01:24:37.976Z,78.30
2018-10-06T01:27:06.972Z,79.20
2018-10-06T01:29:35.625Z,79.50
2018-10-06T01:32:05.231Z,79.60
2018-10-06T01:34:34.750Z,79.50
2018-10-06T01:37:03.392Z,78.70
2018-10-06T01:39:31.870Z,77.50
2018-10-06T01:42:00.485Z,78.00
2018-10-06T01:44:29.646Z,78.00
2018-10-06T01:46:58.550Z,77.90
2018-10-06T01:49:27.273Z,78.50
2018-10-06T01:51:55.510Z,78.90
2018-10-06T01:54:23.829Z,79.40
2018-10-06T01:56:52.196Z,80.00
2018-10-06T01:59:20.461Z,79.70
2018-10-06T02:01:49.093Z,80.80
2018-10-06T02:06:48.312Z,80.10
2018-10-06T02:09:17.174Z,80.60
2018-10-06T02:11:45.386Z,79.90
2018-10-06T02:14:14.026Z,81.00
2018-10-06T02:16:42.756Z,80.20
2018-10-06T02:19:11.237Z,79.40
2018-10-06T02:21:39.790Z,80.10
2018-10-06T02:24:08.311Z,79.60
2018-10-06T02:26:36.574Z,79.80
2018-10-06T02:29:04.887Z,80.20
2018-10-06T02:31:33.178Z,80.80
2018-10-06T02:34:01.393Z,79.60
2018-10-06T02:36:29.945Z,77.90
2018-10-06T02:38:58.625Z,78.30
2018-10-06T02:41:26.820Z,78.80
2018-10-06T02:43:55.496Z,80.00
2018-10-06T02:46:23.763Z,80.00
2018-10-06T02:48:52.278Z,80.10
2018-10-06T02:51:20.872Z,80.00
2018-10-06T02:53:49.084Z,80.60
2018-10-06T02:56:17.645Z,79.40
2018-10-06T02:58:46.107Z,79.80
2018-10-06T03:01:16.120Z,80.30
2018-10-06T03:03:45.626Z,80.30
2018-10-06T03:06:15.896Z,80.70
2018-10-06T03:08:44.366Z,80.50
2018-10-06T03:11:13.179Z,80.80
2018-10-06T03:13:41.764Z,81.20
2018-10-06T03:16:09.984Z,81.10
2018-10-06T03:18:38.252Z,81.60
2018-10-06T03:21:07.325Z,82.20
2018-10-06T03:23:35.571Z,82.10
2018-10-06T03:26:04.525Z,82.60
2018-10-06T03:28:33.071Z,82.50
2018-10-06T03:31:03.192Z,81.80
2018-10-06T03:33:31.395Z,81.20
2018-10-06T03:36:00.277Z,80.90
2018-10-06T03:38:28.760Z,81.40
2018-10-06T03:40:57.110Z,81.30
2018-10-06T03:43:25.336Z,81.80
2018-10-06T03:45:53.601Z,81.60
2018-10-06T03:48:22.187Z,80.70
2018-10-06T03:50:50.606Z,81.10
2018-10-06T03:53:19.137Z,82.00
2018-10-06T03:55:47.920Z,82.50
2018-10-06T03:58:16.178Z,82.70
2018-10-06T04:00:44.761Z,82.30
2018-10-06T04:03:13.309Z,83.10
2018-10-06T04:05:41.592Z,82.60
2018-10-06T04:08:09.898Z,83.30
2018-10-06T04:10:38.379Z,81.70
2018-10-06T04:13:07.452Z,82.40
2018-10-06T04:15:36.237Z,82.20
2018-10-06T04:18:05.084Z,83.50
2018-10-06T04:20:33.294Z,83.90
2018-10-06T04:23:01.707Z,84.30
2018-10-06T04:25:29.931Z,84.50
2018-10-06T04:27:58.234Z,84.70
2018-10-06T04:30:26.769Z,84.40
2018-10-06T04:32:55.007Z,84.70
2018-10-06T04:35:23.241Z,84.40
2018-10-06T04:37:51.578Z,84.30
2018-10-06T04:40:19.792Z,84.70
2018-10-06T04:42:48.396Z,86.10
2018-10-06T04:45:16.860Z,84.20
2018-10-06T04:47:45.209Z,84.90
2018-10-06T04:50:13.472Z,84.70
2018-10-06T04:52:42.657Z,84.90
2018-10-06T04:55:11.097Z,83.60
2018-10-06T04:57:39.329Z,84.00
2018-10-06T05:00:07.853Z,83.40
2018-10-06T05:02:36.131Z,84.00
2018-10-06T05:05:04.387Z,83.30
2018-10-06T05:07:32.867Z,83.10
2018-10-06T05:10:01.341Z,83.80
2018-10-06T05:12:30.079Z,82.80
2018-10-06T05:14:58.289Z,83.30
2018-10-06T05:17:26.490Z,82.00
2018-10-06T05:19:55.009Z,82.20
2018-10-06T05:22:23.241Z,81.10
2018-10-06T05:24:51.775Z,80.10
2018-10-06T05:27:20.065Z,80.40
2018-10-06T05:29:48.320Z,80.50
2018-10-06T05:32:16.935Z,80.50
2018-10-06T05:34:45.181Z,82.00
2018-10-06T05:37:14.247Z,82.20
2018-10-06T05:39:42.493Z,83.10
2018-10-06T05:42:11.153Z,83.50
2018-10-06T05:44:39.706Z,84.10
2018-10-06T05:47:07.981Z,84.10
2018-10-06T05:49:36.282Z,83.90
2018-10-06T05:52:06.008Z,84.10
2018-10-06T05:54:34.228Z,83.70
2018-10-06T05:57:02.463Z,84.00
2018-10-06T05:59:30.652Z,83.60
2018-10-06T06:01:59.011Z,83.50
2018-10-06T06:04:27.630Z,82.60
2018-10-06T06:06:55.852Z,83.20
2018-10-06T06:09:24.421Z,82.90
2018-10-06T06:11:52.703Z,82.30
2018-10-06T06:14:21.488Z,81.50
2018-10-06T06:16:49.843Z,79.00
2018-10-06T06:19:18.099Z,79.60
2018-10-06T06:21:46.583Z,79.50
2018-10-06T06:24:14.938Z,78.80
2018-10-06T06:26:43.486Z,78.60
2018-10-06T06:29:11.799Z,78.50
2018-10-06T06:31:40.276Z,77.10
2018-10-06T06:34:08.788Z,77.70
2018-10-06T06:36:37.108Z,77.70
2018-10-06T06:39:06.665Z,77.30
2018-10-06T06:41:34.977Z,77.20
2018-10-06T06:44:03.552Z,76.60
2018-10-06T06:46:31.986Z,76.30
2018-10-06T06:49:00.184Z,75.90
2018-10-06T06:51:28.436Z,74.90
2018-10-06T06:53:56.685Z,75.00
2018-10-06T06:56:24.949Z,74.30
2018-10-06T06:58:53.965Z,74.00
2018-10-06T07:01:22.430Z,74.20
2018-10-06T07:03:50.956Z,72.50
2018-10-06T07:06:19.803Z,72.90
2018-10-06T07:08:48.050Z,74.60
2018-10-06T07:11:17.210Z,72.50
2018-10-06T07:13:45.738Z,72.50
2018-10-06T07:16:13.928Z,73.00
2018-10-06T07:18:42.485Z,73.00
2018-10-06T07:21:10.696Z,73.00
2018-10-06T07:23:39.463Z,73.00
2018-10-06T07:26:07.808Z,72.70
2018-10-06T07:28:36.188Z,72.30
2018-10-06T07:31:04.403Z,71.90
2018-10-06T07:33:32.666Z,72.50
2018-10-06T07:36:00.944Z,71.50
2018-10-06T07:38:29.528Z,71.90
2018-10-06T07:40:58.384Z,70.60
2018-10-06T07:43:26.796Z,71.10
2018-10-06T07:45:55.135Z,71.00
2018-10-06T07:48:23.546Z,68.90
2018-10-06T07:50:52.715Z,70.00
2018-10-06T07:53:21.335Z,69.90
2018-10-06T07:55:50.195Z,68.60
2018-10-06T07:58:21.445Z,68.00
2018-10-06T08:00:49.734Z,68.60
2018-10-06T08:03:18.169Z,66.80
2018-10-06T08:05:46.823Z,67.00
2018-10-06T08:08:15.363Z,67.00
2018-10-06T08:10:43.992Z,65.70
2018-10-06T08:13:13.497Z,63.60
2018-10-06T08:15:41.788Z,63.70
2018-10-06T08:18:10.253Z,64.40
2018-10-06T08:20:38.480Z,62.40
2018-10-06T08:23:06.796Z,61.00
2018-10-06T08:25:36.340Z,61.30
2018-10-06T08:28:04.784Z,60.70
2018-10-06T08:30:33.490Z,61.10
2018-10-06T08:33:01.720Z,60.70
2018-10-06T08:35:30.762Z,60.10
2018-10-06T08:37:59.565Z,60.10
2018-10-06T08:40:28.230Z,60.70
2018-10-06T08:42:56.498Z,61.30
2018-10-06T08:45:24.906Z,59.80
2018-10-06T08:47:53.201Z,60.50
2018-10-06T08:50:21.739Z,59.00
2018-10-06T08:52:50.148Z,59.40
2018-10-06T08:55:18.413Z,59.30
2018-10-06T08:57:47.683Z,59.80
2018-10-06T09:00:15.942Z,60.00
2018-10-06T09:02:44.187Z,59.20
2018-10-06T09:05:12.952Z,58.30
2018-10-06T09:07:41.279Z,58.60
2018-10-06T09:10:10.408Z,58.30
2018-10-06T09:12:39.379Z,56.90
2018-10-06T09:15:07.989Z,57.20
2018-10-06T09:17:36.287Z,57.20
2018-10-06T09:20:04.744Z,55.40
2018-10-06T09:22:33.828Z,55.90
2018-10-06T09:25:02.061Z,55.20
2018-10-06T09:27:31.259Z,53.60
2018-10-06T09:29:59.513Z,54.10
2018-10-06T09:32:27.838Z,53.40
2018-10-06T09:34:56.749Z,52.70
2018-10-06T09:37:25.064Z,52.10
2018-10-06T09:39:54.601Z,51.00
2018-10-06T09:42:22.901Z,50.20
2018-10-06T09:44:51.315Z,49.10
2018-10-06T09:47:21.241Z,48.30
2018-10-06T09:49:49.760Z,45.70
2018-10-06T09:52:17.950Z,43.00
2018-10-06T09:54:47.124Z,42.20
2018-10-06T09:57:15.339Z,39.70
2018-10-06T09:59:44.095Z,40.40
2018-10-06T10:02:18.268Z,40.10
2018-10-06T10:04:46.648Z,40.30
2018-10-06T10:07:15.161Z,38.00
2018-10-06T10:12:21.480Z,37.60
2018-10-06T10:14:49.680Z,39.20
2018-10-06T10:17:18.080Z,38.20
2018-10-06T10:19:46.232Z,37.50
2018-10-06T10:22:14.550Z,37.50
2018-10-06T10:24:43.081Z,38.10
2018-10-06T10:27:12.171Z,38.10
2018-10-06T10:29:40.365Z,37.90
2018-10-06T10:32:09.041Z,37.80
2018-10-06T10:34:37.412Z,36.30
2018-10-06T10:37:05.872Z,35.20
2018-10-06T10:39:34.442Z,36.00
2018-10-06T10:42:02.528Z,36.40
2018-10-06T10:44:30.884Z,35.70
2018-10-06T10:46:59.007Z,33.00
2018-10-06T10:49:27.797Z,32.90
2018-10-06T10:51:55.949Z,33.60
2018-10-06T10:54:24.193Z,34.50
2018-10-06T10:56:52.616Z,33.50
2018-10-06T10:59:21.403Z,32.70
2018-10-06T11:01:49.844Z,33.30
2018-10-06T11:04:18.051Z,33.50
2018-10-06T11:06:46.765Z,33.10
2018-10-06T11:09:15.205Z,32.90
2018-10-06T11:11:43.444Z,31.20
2018-10-06T11:14:11.961Z,31.90
2018-10-06T11:16:40.209Z,30.70
2018-10-06T11:19:08.572Z,30.40
2018-10-06T11:21:36.765Z,30.60
2018-10-06T11:24:05.067Z,30.60
2018-10-06T11:26:34.594Z,30.60
2018-10-06T11:29:02.901Z,31.30
2018-10-06T11:31:32.263Z,31.70
2018-10-06T11:34:01.064Z,31.60
2018-10-06T11:36:29.250Z,32.30
2018-10-06T11:38:57.846Z,32.00
2018-10-06T11:41:26.134Z,32.00
2018-10-06T11:43:54.639Z,33.30
2018-10-06T11:46:22.881Z,32.60
2018-10-06T11:48:51.495Z,32.70
2018-10-06T11:51:20.503Z,32.40
2018-10-06T11:53:48.779Z,31.10
2018-10-06T11:56:17.335Z,31.30
2018-10-06T11:58:46.194Z,31.60
2018-10-06T12:01:14.723Z,31.30
2018-10-06T12:03:43.115Z,31.40
2018-10-06T12:06:11.401Z,32.20
2018-10-06T12:08:40.237Z,32.00
2018-10-06T12:11:08.736Z,31.20
2018-10-06T12:13:37.028Z,31.90
2018-10-06T12:16:05.564Z,32.60
2018-10-06T12:18:34.084Z,32.50
2018-10-06T12:21:02.287Z,32.40
2018-10-06T12:23:30.568Z,32.60
2018-10-06T12:25:59.073Z,32.50
2018-10-06T12:28:27.287Z,32.80
2018-10-06T12:30:55.569Z,33.20
2018-10-06T12:33:24.016Z,33.10
2018-10-06T12:35:52.509Z,32.40
2018-10-06T12:38:21.321Z,32.80
2018-10-06T12:40:49.593Z,32.60
2018-10-06T12:43:17.837Z,32.50
2018-10-06T12:45:46.999Z,33.20
2018-10-06T12:48:15.785Z,33.30
2018-10-06T12:50:44.934Z,32.70
2018-10-06T12:53:13.209Z,33.10
2018-10-06T12:55:41.510Z,32.60
2018-10-06T12:58:09.787Z,33.10
2018-10-06T13:00:38.160Z,33.20
2018-10-06T13:03:06.912Z,33.20
2018-10-06T13:05:35.160Z,32.70
2018-10-06T13:08:03.442Z,32.40
2018-10-06T13:10:31.662Z,32.80
2018-10-06T13:12:59.904Z,31.50
2018-10-06T13:15:28.277Z,32.10
2018-10-06T13:17:56.809Z,32.30
2018-10-06T13:20:25.015Z,32.50
2018-10-06T13:22:53.417Z,32.20
2018-10-06T13:25:21.664Z,32.00
2018-10-06T13:27:49.969Z,31.90
2018-10-06T13:30:18.728Z,31.60
2018-10-06T13:32:47.649Z,31.80
2018-10-06T13:35:16.137Z,30.70
2018-10-06T13:37:44.684Z,30.50
2018-10-06T13:40:12.969Z,30.10
2018-10-06T13:42:41.219Z,28.80
2018-10-06T13:45:09.550Z,28.30
2018-10-06T13:47:37.869Z,28.40
2018-10-06T13:50:06.136Z,28.30
2018-10-06T13:52:34.593Z,27.70
2018-10-06T13:55:02.857Z,27.00
2018-10-06T13:57:31.114Z,27.10
2018-10-06T13:59:59.421Z,26.50
2018-10-06T14:02:27.697Z,26.20
2018-10-06T14:04:55.942Z,25.30
2018-10-06T14:07:25.209Z,23.50
2018-10-06T14:09:53.473Z,22.90
2018-10-06T14:12:21.686Z,21.90
2018-10-06T14:14:49.929Z,21.70
2018-10-06T14:17:18.446Z,22.10
2018-10-06T14:19:47.152Z,23.10
2018-10-06T14:22:15.411Z,24.50
2018-10-06T14:24:43.625Z,26.80
2018-10-06T14:27:11.884Z,27.10
2018-10-06T14:29:41.608Z,27.70
2018-10-06T14:32:09.916Z,28.90
2018-10-06T14:34:38.613Z,29.50
2018-10-06T14:37:07.405Z,30.00
2018-10-06T14:39:35.651Z,29.80
2018-10-06T14:42:04.101Z,30.40
2018-10-06T14:44:32.426Z,30.90
2018-10-06T14:47:00.698Z,31.90
2018-10-06T14:49:30.127Z,32.20
2018-10-06T14:54:27.185Z,32.70
2018-10-06T14:56:55.476Z,33.90
2018-10-06T14:59:23.869Z,34.50
2018-10-06T15:01:52.088Z,34.50
2018-10-06T15:04:20.630Z,34.10
2018-10-06T15:06:49.521Z,34.60
2018-10-06T15:09:17.733Z,35.00
2018-10-06T15:11:46.228Z,34.80
2018-10-06T15:14:14.593Z,33.70
2018-10-06T15:16:43.634Z,34.30
2018-10-06T15:19:11.893Z,34.10
2018-10-06T15:21:40.165Z,34.40
2018-10-06T15:24:08.830Z,34.30
2018-10-06T15:26:37.553Z,34.90
2018-10-06T15:29:06.036Z,34.70
2018-10-06T15:34:02.768Z,34.70
2018-10-06T15:38:59.368Z,35.30
2018-10-06T15:41:27.544Z,35.70
2018-10-06T15:43:55.795Z,35.80
2018-10-06T15:46:24.009Z,35.80
2018-10-06T15:48:52.792Z,36.00
2018-10-06T15:51:21.008Z,36.20
2018-10-06T15:53:50.976Z,36.80
2018-10-06T15:56:19.902Z,36.70
2018-10-06T15:58:48.156Z,36.90
2018-10-06T16:01:16.405Z,37.00
2018-10-06T16:03:44.719Z,37.40
2018-10-06T16:06:13.388Z,37.40
2018-10-06T16:08:41.639Z,38.00
2018-10-06T16:11:09.891Z,37.90
2018-10-06T16:13:39.073Z,38.50
2018-10-06T16:16:07.440Z,38.50
2018-10-06T16:18:35.999Z,38.40
2018-10-06T16:21:04.389Z,38.40
2018-10-06T16:23:33.612Z,38.20
2018-10-06T16:26:01.888Z,38.70
2018-10-06T16:28:30.512Z,39.00
2018-10-06T16:31:00.022Z,39.00
2018-10-06T16:33:28.310Z,39.10
2018-10-06T16:35:56.896Z,39.60
2018-10-06T16:38:25.161Z,39.90
2018-10-06T16:40:53.434Z,40.40
2018-10-06T16:43:21.980Z,40.50
2018-10-06T16:45:50.360Z,40.80
2018-10-06T16:48:18.579Z,41.40
2018-10-06T16:50:46.975Z,43.10
2018-10-06T16:53:15.402Z,43.10
2018-10-06T16:55:43.645Z,43.10
2018-10-06T16:58:12.205Z,43.60
2018-10-06T17:00:40.669Z,43.40
2018-10-06T17:03:08.993Z,44.00
2018-10-06T17:05:37.268Z,44.70
2018-10-06T17:08:05.631Z,45.30
2018-10-06T17:10:33.888Z,45.60
2018-10-06T17:13:02.256Z,45.70
2018-10-06T17:15:30.697Z,46.00
2018-10-06T17:17:59.285Z,45.90
2018-10-06T17:20:27.554Z,45.70
2018-10-06T17:22:56.026Z,45.70
2018-10-06T17:25:24.567Z,46.10
2018-10-06T17:27:52.889Z,46.30
2018-10-06T17:30:21.124Z,47.10
2018-10-06T17:32:49.303Z,47.20
2018-10-06T17:35:17.846Z,47.10
2018-10-06T17:37:46.060Z,47.40
2018-10-06T17:40:14.324Z,47.10
2018-10-06T17:42:42.626Z,47.50
2018-10-06T17:45:10.916Z,47.60
2018-10-06T17:47:39.682Z,47.80
2018-10-06T17:50:08.073Z,48.60
2018-10-06T17:52:36.483Z,48.80
2018-10-06T17:55:04.884Z,49.10
2018-10-06T17:57:33.169Z,49.20
2018-10-06T18:00:01.389Z,49.20
2018-10-06T18:02:29.595Z,50.40
2018-10-06T18:04:58.133Z,50.00
2018-10-06T18:07:26.658Z,50.30
2018-10-06T18:09:55.215Z,51.10
2018-10-06T18:12:23.406Z,51.20
2018-10-06T18:14:51.727Z,50.70
2018-10-06T18:17:19.953Z,50.60
2018-10-06T18:19:49.737Z,51.20
2018-10-06T18:22:18.078Z,51.20
2018-10-06T18:24:46.422Z,51.60
2018-10-06T18:27:14.904Z,51.70
2018-10-06T18:29:43.901Z,52.40
2018-10-06T18:32:13.000Z,52.60
2018-10-06T18:34:41.251Z,52.30
2018-10-06T18:37:09.525Z,52.20
2018-10-06T18:39:38.050Z,53.00
2018-10-06T18:42:06.576Z,52.80
2018-10-06T18:44:35.380Z,52.90
2018-10-06T18:47:03.884Z,53.60
2018-10-06T18:49:33.328Z,53.90
2018-10-06T18:52:01.856Z,53.90
2018-10-06T18:56:59.204Z,53.70
2018-10-06T18:59:27.994Z,54.90
2018-10-06T19:01:57.523Z,54.80
2018-10-06T19:06:54.201Z,54.60
2018-10-06T19:09:22.831Z,54.80
2018-10-06T19:11:51.005Z,55.00
2018-10-06T19:14:19.250Z,55.40
2018-10-06T19:19:15.608Z,54.60
2018-10-06T19:21:44.157Z,54.80
2018-10-06T19:24:12.428Z,55.20
2018-10-06T19:26:41.320Z,54.80
2018-10-06T19:29:09.886Z,55.00
2018-10-06T19:31:38.847Z,55.30
2018-10-06T19:34:07.747Z,55.20
2018-10-06T19:36:36.706Z,55.30
2018-10-06T19:39:06.893Z,55.90
2018-10-06T19:41:35.379Z,55.80
2018-10-06T19:44:03.614Z,55.80
2018-10-06T19:46:32.121Z,56.20
2018-10-06T19:49:00.326Z,56.00
2018-10-06T19:51:28.515Z,57.40
2018-10-06T19:53:56.773Z,56.90
2018-10-06T19:56:25.342Z,56.90
2018-10-06T19:58:53.872Z,56.90
2018-10-06T20:01:22.434Z,57.20
2018-10-06T20:03:50.679Z,57.10
2018-10-06T20:06:19.332Z,57.70
2018-10-06T20:08:47.814Z,59.70
2018-10-06T20:11:16.098Z,60.00
2018-10-06T20:13:44.922Z,58.10
2018-10-06T20:16:13.177Z,58.70
2018-10-06T20:18:41.428Z,59.00
2018-10-06T20:21:09.945Z,57.20
2018-10-06T20:23:38.303Z,56.50
2018-10-06T20:26:07.530Z,57.00
2018-10-06T20:31:04.294Z,57.20
2018-10-06T20:33:32.607Z,58.20
2018-10-06T20:36:01.146Z,58.80
2018-10-06T20:38:29.332Z,58.70
2018-10-06T20:40:57.681Z,57.90
2018-10-06T20:43:26.015Z,58.40
2018-10-06T20:45:54.519Z,57.80
2018-10-06T20:48:22.922Z,58.10
2018-10-06T20:50:52.457Z,58.60
2018-10-06T20:53:22.094Z,59.70
2018-10-06T20:55:50.821Z,59.60
2018-10-06T20:58:19.618Z,59.90
2018-10-06T21:00:49.324Z,60.10
2018-10-06T21:03:17.694Z,59.60
2018-10-06T21:05:46.568Z,59.90
2018-10-06T21:08:14.941Z,60.50
2018-10-06T21:10:44.786Z,60.80
2018-10-06T21:15:41.615Z,60.80
2018-10-06T21:18:10.170Z,60.80
2018-10-06T21:20:38.942Z,61.30
2018-10-06T21:23:07.520Z,60.70
2018-10-06T21:25:35.854Z,60.50
2018-10-06T21:28:04.112Z,60.50
2018-10-06T21:30:32.761Z,60.30
2018-10-06T21:33:02.125Z,60.90
2018-10-06T21:35:30.677Z,61.10
2018-10-06T21:37:59.237Z,60.80
2018-10-06T21:43:03.664Z,60.50
2018-10-06T21:45:32.100Z,61.40
2018-10-06T21:48:00.387Z,60.90
2018-10-06T21:50:29.036Z,60.80
2018-10-06T21:52:57.557Z,61.30
2018-10-06T21:55:26.233Z,60.50
2018-10-06T21:57:54.774Z,60.60
2018-10-06T22:00:23.074Z,61.00
2018-10-06T22:02:51.333Z,61.60
2018-10-06T22:05:19.993Z,61.20
2018-10-06T22:07:49.180Z,61.50
2018-10-06T22:10:17.857Z,60.90
2018-10-06T22:15:14.335Z,61.40
2018-10-06T22:17:42.738Z,62.00
2018-10-06T22:20:11.456Z,62.30
2018-10-06T22:22:40.739Z,62.20
2018-10-06T22:25:08.991Z,62.70
2018-10-06T22:27:37.493Z,63.10
2018-10-06T22:30:06.873Z,63.20
2018-10-06T22:32:35.975Z,63.80
2018-10-06T22:35:04.214Z,63.80
2018-10-06T22:37:34.520Z,64.40
2018-10-06T22:40:02.818Z,65.00
2018-10-06T22:42:31.099Z,65.00
2018-10-06T22:44:59.405Z,64.40
2018-10-06T22:47:27.909Z,65.10
2018-10-06T22:49:56.645Z,64.90
2018-10-06T22:54:53.355Z,65.20
2018-10-06T22:57:21.893Z,65.80
2018-10-06T22:59:50.214Z,65.30
2018-10-06T23:02:19.052Z,65.90
2018-10-06T23:07:16.148Z,65.10
2018-10-06T23:09:45.176Z,65.40
2018-10-06T23:14:42.688Z,66.00
2018-10-06T23:17:11.289Z,66.00
2018-10-06T23:19:40.540Z,66.60
2018-10-06T23:22:10.109Z,65.90
2018-10-06T23:24:38.585Z,66.60
2018-10-06T23:27:06.822Z,66.10
2018-10-06T23:29:35.151Z,67.00
2018-10-06T23:32:03.735Z,66.60
2018-10-06T23:34:31.973Z,66.80
2018-10-06T23:37:00.213Z,66.20
2018-10-06T23:39:28.798Z,64.50
2018-10-06T23:41:57.006Z,66.70
2018-10-06T23:44:25.577Z,67.90
2018-10-06T23:46:54.876Z,67.10
2018-10-06T23:49:23.222Z,66.70
2018-10-06T23:51:52.342Z,65.80
2018-10-06T23:54:21.056Z,66.40
2018-10-06T23:56:49.244Z,66.40
2018-10-06T23:59:18.324Z,66.60
